createdAt,value
2017-01-01T00:00:03.444Z,-0.5
2017-01-01T00:05:04.413Z,-0.5
2017-01-01T00:10:04.412Z,-0.5
2017-01-01T00:15:04.512Z,-0.5
2017-01-01T00:20:04.186Z,-0.5
2017-01-01T00:25:04.046Z,-0.6
2017-01-01T00:30:04.851Z,-0.6
2017-01-01T00:35:04.570Z,-0.8
2017-01-01T00:40:04.538Z,-1.1
2017-01-01T00:45:04.801Z,-1.1
2017-01-01T00:50:04.797Z,-1.1
2017-01-01T00:55:04.787Z,-1.2
2017-01-01T01:00:04.977Z,-1.5
2017-01-01T01:05:04.824Z,-1.5
2017-01-01T01:10:04.841Z,-1.7
2017-01-01T01:15:04.018Z,-1.5
2017-01-01T01:20:04.044Z,-1.7
2017-01-01T01:25:04.176Z,-1.7
2017-01-01T01:30:04.051Z,-1.7
2017-01-01T01:35:04.990Z,-1.7
2017-01-01T01:40:04.243Z,-1.7
2017-01-01T01:45:03.936Z,-1.7
2017-01-01T01:50:03.993Z,-1.7
2017-01-01T01:55:04.781Z,-1.7
2017-01-01T02:00:04.724Z,-1.7
2017-01-01T02:05:04.359Z,-1.7
2017-01-01T02:10:04.558Z,-1.7
2017-01-01T02:15:04.239Z,-1.7
2017-01-01T02:20:04.162Z,-1.8
2017-01-01T02:25:04.049Z,-1.7
2017-01-01T02:30:04.080Z,-1.7
2017-01-01T02:35:04.895Z,-1.7
2017-01-01T02:40:04.049Z,-1.7
2017-01-01T02:45:04.813Z,-1.7
2017-01-01T02:50:04.690Z,-1.7
2017-01-01T02:55:04.686Z,-1.7
2017-01-01T03:00:04.968Z,-1.7
2017-01-01T03:05:07.503Z,-1.7
2017-01-01T03:10:04.034Z,-1.7
2017-01-01T03:15:04.008Z,-1.7
2017-01-01T03:20:04.955Z,-1.7
2017-01-01T03:25:04.689Z,-1.7
2017-01-01T03:30:04.628Z,-1.5
2017-01-01T03:35:04.568Z,-1.5
2017-01-01T03:40:04.360Z,-1.7
2017-01-01T03:45:04.209Z,-1.5
2017-01-01T03:50:03.985Z,-1.7
2017-01-01T03:55:04.942Z,-1.5
2017-01-01T04:00:04.985Z,-1.5
2017-01-01T04:05:05.279Z,-1.5
2017-01-01T04:10:04.709Z,-1.2
2017-01-01T04:15:04.925Z,-1.2
2017-01-01T04:20:04.108Z,-1.2
2017-01-01T04:25:04.161Z,-1.2
2017-01-01T04:30:04.186Z,-1.2
2017-01-01T04:35:04.037Z,-1.2
2017-01-01T04:40:04.174Z,-1.2
2017-01-01T04:45:04.841Z,-1.2
2017-01-01T04:50:04.736Z,-1.2
2017-01-01T04:55:04.834Z,-1.2
2017-01-01T05:00:03.914Z,-1.2
2017-01-01T05:05:04.754Z,-1.2
2017-01-01T05:10:03.783Z,-1.2
2017-01-01T05:15:04.845Z,-1.2
2017-01-01T05:20:04.722Z,-1.2
2017-01-01T05:25:04.270Z,-1.2
2017-01-01T05:30:04.161Z,-1.2
2017-01-01T05:35:04.939Z,-1.2
2017-01-01T05:40:04.164Z,-1.2
2017-01-01T05:45:04.029Z,-1.2
2017-01-01T05:50:04.734Z,-1.2
2017-01-01T05:55:04.497Z,-1.2
2017-01-01T06:00:04.227Z,-1.2
2017-01-01T06:05:04.942Z,-1.1
2017-01-01T06:10:04.957Z,-1.1
2017-01-01T06:15:04.200Z,-1.1
2017-01-01T06:20:04.233Z,-1.1
2017-01-01T06:25:04.943Z,-1.1
2017-01-01T06:30:04.087Z,-0.8
2017-01-01T06:35:04.325Z,-1.1
2017-01-01T06:40:04.501Z,-1.1
2017-01-01T06:45:04.515Z,-1.1
2017-01-01T06:50:04.366Z,-1.1
2017-01-01T06:55:04.257Z,-1.1
2017-01-01T07:00:04.135Z,-0.8
2017-01-01T07:05:04.114Z,-0.8
2017-01-01T07:10:04.468Z,-0.8
2017-01-01T07:15:04.423Z,-0.8
2017-01-01T07:20:04.400Z,-0.8
2017-01-01T07:25:04.394Z,-0.8
2017-01-01T07:30:04.111Z,-0.8
2017-01-01T07:35:04.326Z,-1.1
2017-01-01T07:40:04.756Z,-0.8
2017-01-01T07:45:04.718Z,-1.1
2017-01-01T07:50:04.636Z,-1.1
2017-01-01T07:55:04.402Z,-1.1
2017-01-01T08:00:04.515Z,-0.8
2017-01-01T08:05:04.307Z,-1.1
2017-01-01T08:10:04.582Z,-1.1
2017-01-01T08:15:04.621Z,-0.8
2017-01-01T08:20:04.903Z,-1.1
2017-01-01T08:25:04.422Z,-0.8
2017-01-01T08:30:04.396Z,-1.1
2017-01-01T08:35:04.452Z,-1.1
2017-01-01T08:40:04.482Z,-1.1
2017-01-01T08:45:04.461Z,-1.1
2017-01-01T08:50:04.599Z,-1.2
2017-01-01T08:55:04.665Z,-1.2
2017-01-01T09:00:04.420Z,-1.2
2017-01-01T09:05:04.403Z,-1.2
2017-01-01T09:10:04.322Z,-1.2
2017-01-01T09:15:04.173Z,-1.2
2017-01-01T09:20:04.971Z,-1.2
2017-01-01T09:25:04.995Z,-1.2
2017-01-01T09:30:04.029Z,-1.1
2017-01-01T09:35:04.850Z,-1.1
2017-01-01T09:40:04.134Z,-0.8
2017-01-01T09:45:04.929Z,-0.8
2017-01-01T09:50:07.911Z,-0.8
2017-01-01T09:55:04.740Z,-0.8
2017-01-01T10:00:04.581Z,-0.6
2017-01-01T10:05:04.563Z,-0.6
2017-01-01T10:10:04.094Z,-0.8
2017-01-01T10:15:04.029Z,-0.6
2017-01-01T10:20:06.017Z,-0.6
2017-01-01T10:25:04.076Z,-0.5
2017-01-01T10:30:04.902Z,-0.3
2017-01-01T10:35:04.849Z,-0.5
2017-01-01T10:40:04.529Z,-0.3
2017-01-01T10:45:04.739Z,-0.3
2017-01-01T10:50:04.614Z,-0.5
2017-01-01T10:55:04.517Z,-0.3
2017-01-01T11:00:04.389Z,-0.5
2017-01-01T11:05:04.261Z,-0.6
2017-01-01T11:10:04.438Z,-0.3
2017-01-01T11:15:04.425Z,-0.5
2017-01-01T11:20:04.599Z,-0.5
2017-01-01T11:25:04.620Z,-0.3
2017-01-01T11:30:04.677Z,0.0
2017-01-01T11:35:04.431Z,0.0
2017-01-01T11:40:04.913Z,0.0
2017-01-01T11:45:04.198Z,0.0
2017-01-01T11:50:03.983Z,0.0
2017-01-01T11:55:04.089Z,0.0
2017-01-01T12:00:03.947Z,0.0
2017-01-01T12:05:03.901Z,0.0
2017-01-01T12:10:04.176Z,-0.5
2017-01-01T12:15:04.214Z,-0.5
2017-01-01T12:20:04.134Z,-0.5
2017-01-01T12:25:04.197Z,-0.5
2017-01-01T12:30:04.034Z,-0.5
2017-01-01T12:35:04.060Z,-0.5
2017-01-01T12:40:04.056Z,-0.5
2017-01-01T12:45:04.040Z,-0.5
2017-01-01T12:50:04.110Z,-0.5
2017-01-01T12:55:04.944Z,-0.5
2017-01-01T13:00:05.247Z,-0.6
2017-01-01T13:05:06.861Z,-0.6
2017-01-01T13:10:04.664Z,-0.6
2017-01-01T13:15:04.854Z,-0.6
2017-01-01T13:20:05.029Z,-1.1
2017-01-01T13:25:04.248Z,-1.1
2017-01-01T13:30:04.317Z,-1.2
2017-01-01T13:35:04.353Z,-1.2
2017-01-01T13:40:04.215Z,-1.2
2017-01-01T13:45:03.931Z,-1.2
2017-01-01T13:50:03.992Z,-1.1
2017-01-01T13:55:04.034Z,-1.1
2017-01-01T14:00:04.052Z,-1.1
2017-01-01T14:05:04.138Z,-1.2
2017-01-01T14:10:04.459Z,-1.2
2017-01-01T14:15:04.372Z,-1.2
2017-01-01T14:20:04.707Z,-1.2
2017-01-01T14:25:04.701Z,-1.2
2017-01-01T14:30:04.438Z,-1.2
2017-01-01T14:35:04.312Z,-1.2
2017-01-01T14:40:04.682Z,-1.2
2017-01-01T14:45:05.382Z,-1.2
2017-01-01T14:50:04.274Z,-1.2
2017-01-01T14:55:04.055Z,-1.2
2017-01-01T15:00:03.904Z,-1.2
2017-01-01T15:05:04.850Z,-1.2
2017-01-01T15:10:04.155Z,-1.2
2017-01-01T15:15:04.215Z,-1.2
2017-01-01T15:20:04.321Z,-1.2
2017-01-01T15:25:04.626Z,-1.2
2017-01-01T15:30:04.411Z,-1.2
2017-01-01T15:35:04.310Z,-1.2
2017-01-01T15:40:04.431Z,-1.2
2017-01-01T15:45:04.237Z,-1.2
2017-01-01T15:50:04.170Z,-1.1
2017-01-01T15:55:04.203Z,-1.1
2017-01-01T16:00:04.350Z,-1.1
2017-01-01T16:05:04.146Z,-1.2
2017-01-01T16:10:04.487Z,-1.1
2017-01-01T16:15:04.190Z,-1.1
2017-01-01T16:20:04.258Z,-1.1
2017-01-01T16:25:04.431Z,-1.1
2017-01-01T16:30:04.521Z,-1.1
2017-01-01T16:35:04.710Z,-0.8
2017-01-01T16:40:04.218Z,-0.8
2017-01-01T16:45:04.029Z,-0.6
2017-01-01T16:50:03.942Z,-0.6
2017-01-01T16:55:04.438Z,-0.6
2017-01-01T17:00:04.653Z,-0.6
2017-01-01T17:05:03.974Z,-0.5
2017-01-01T17:10:04.114Z,-0.5
2017-01-01T17:15:04.097Z,-0.5
2017-01-01T17:20:04.151Z,-0.5
2017-01-01T17:25:04.285Z,-0.5
2017-01-01T17:30:04.448Z,-0.5
2017-01-01T17:35:04.531Z,-0.3
2017-01-01T17:40:04.519Z,-0.5
2017-01-01T17:45:04.524Z,-0.5
2017-01-01T17:50:04.366Z,-0.3
2017-01-01T17:55:04.182Z,-0.5
2017-01-01T18:00:04.060Z,-0.3
2017-01-01T18:05:04.148Z,-0.3
2017-01-01T18:10:04.295Z,-0.3
2017-01-01T18:15:03.992Z,-0.3
2017-01-01T18:20:05.054Z,-0.3
2017-01-01T18:25:04.772Z,-0.3
2017-01-01T18:30:05.030Z,-0.3
2017-01-01T18:35:04.931Z,-0.3
2017-01-01T18:40:04.349Z,-0.3
2017-01-01T18:45:04.338Z,-0.3
2017-01-01T18:50:04.460Z,-0.3
2017-01-01T18:55:04.219Z,0.0
2017-01-01T19:00:04.244Z,-0.3
2017-01-01T19:05:04.088Z,-0.3
2017-01-01T19:10:04.059Z,-0.3
2017-01-01T19:15:04.833Z,-0.3
2017-01-01T19:20:04.951Z,0.0
2017-01-01T19:25:04.936Z,0.0
2017-01-01T19:30:04.928Z,0.0
2017-01-01T19:35:05.157Z,0.0
2017-01-01T19:40:04.049Z,0.0
2017-01-01T19:45:04.068Z,0.0
2017-01-01T19:50:04.062Z,0.0
2017-01-01T19:55:04.196Z,0.0
2017-01-01T20:00:04.495Z,0.0
2017-01-01T20:05:04.370Z,0.0
2017-01-01T20:10:04.297Z,0.0
2017-01-01T20:15:04.214Z,0.0
2017-01-01T20:20:04.248Z,0.0
2017-01-01T20:25:04.322Z,0.0
2017-01-01T20:30:04.174Z,0.0
2017-01-01T20:35:05.007Z,0.1
2017-01-01T20:40:04.245Z,0.0
2017-01-01T20:45:04.153Z,0.1
2017-01-01T20:50:04.117Z,0.0
2017-01-01T20:55:04.856Z,0.0
2017-01-01T21:00:04.802Z,0.1
2017-01-01T21:05:04.800Z,0.1
2017-01-01T21:10:04.855Z,0.0
2017-01-01T21:15:04.688Z,0.1
2017-01-01T21:20:04.805Z,0.1
2017-01-01T21:25:04.563Z,0.1
2017-01-01T21:30:04.765Z,0.1
2017-01-01T21:35:04.728Z,0.1
2017-01-01T21:40:04.890Z,0.1
2017-01-01T21:45:04.003Z,0.1
2017-01-01T21:50:04.780Z,0.1
2017-01-01T21:55:04.852Z,0.1
2017-01-01T22:00:04.597Z,0.1
2017-01-01T22:05:04.543Z,0.3
2017-01-01T22:10:04.838Z,0.3
2017-01-01T22:15:04.821Z,0.3
2017-01-01T22:20:04.840Z,0.3
2017-01-01T22:25:04.497Z,0.1
2017-01-01T22:30:04.430Z,0.1
2017-01-01T22:35:04.454Z,0.1
2017-01-01T22:40:04.758Z,0.1
2017-01-01T22:45:04.490Z,0.1
2017-01-01T22:50:04.336Z,0.1
2017-01-01T22:55:04.211Z,0.1
2017-01-01T23:00:04.139Z,0.1
2017-01-01T23:05:03.998Z,0.1
2017-01-01T23:10:04.169Z,0.1
2017-01-01T23:15:04.335Z,0.1
2017-01-01T23:20:04.071Z,0.1
2017-01-01T23:25:04.804Z,0.0
2017-01-01T23:30:04.784Z,0.0
2017-01-01T23:35:04.734Z,0.1
2017-01-01T23:40:04.998Z,0.1
2017-01-01T23:45:04.858Z,0.1
2017-01-01T23:50:04.661Z,0.0
2017-01-01T23:55:04.693Z,0.1
